createdAt,value
2022-11-26T00:01:46.930Z,14.27
2022-11-26T00:04:14.921Z,14.98
2022-11-26T00:06:44.774Z,14.75
2022-11-26T00:09:19.066Z,15.23
2022-11-26T00:11:48.319Z,14.88
2022-11-26T00:14:17.108Z,14.15
2022-11-26T00:16:45.801Z,14.85
2022-11-26T00:19:13.716Z,14.23
2022-11-26T00:21:43.565Z,14.10
2022-11-26T00:24:26.156Z,14.18
2022-11-26T00:26:58.419Z,15.10
2022-11-26T00:29:26.584Z,15.30
2022-11-26T00:31:54.474Z,15.32
2022-11-26T00:34:22.458Z,14.73
2022-11-26T00:36:50.342Z,14.20
2022-11-26T00:39:22.537Z,14.07
2022-11-26T00:41:52.840Z,14.30
2022-11-26T00:44:25.174Z,15.02
2022-11-26T00:46:53.232Z,14.57
2022-11-26T00:49:21.858Z,14.93
2022-11-26T00:51:49.880Z,14.18
2022-11-26T00:54:19.657Z,14.10
2022-11-26T00:56:49.004Z,14.75
2022-11-26T00:59:20.592Z,14.30
2022-11-26T01:01:50.290Z,13.85
2022-11-26T01:04:18.258Z,14.23
2022-11-26T01:06:47.014Z,13.98
2022-11-26T01:09:17.873Z,14.25
2022-11-26T01:11:48.730Z,13.77
2022-11-26T01:14:20.724Z,14.88
2022-11-26T01:16:51.456Z,15.68
2022-11-26T01:19:19.357Z,14.95
2022-11-26T01:21:47.183Z,14.73
2022-11-26T01:24:15.023Z,15.07
2022-11-26T01:26:44.791Z,15.25
2022-11-26T01:29:16.621Z,15.02
2022-11-26T01:31:44.567Z,14.85
2022-11-26T01:34:14.440Z,13.93
2022-11-26T01:36:42.982Z,16.15
2022-11-26T01:39:16.113Z,15.32
2022-11-26T01:41:47.100Z,14.90
2022-11-26T01:44:20.073Z,15.43
2022-11-26T01:46:49.061Z,16.00
2022-11-26T01:49:21.179Z,15.73
2022-11-26T01:51:51.803Z,15.77
2022-11-26T01:54:19.812Z,16.52
2022-11-26T01:56:51.842Z,16.73
2022-11-26T01:59:24.603Z,16.48
2022-11-26T02:01:54.052Z,15.77
2022-11-26T02:04:27.366Z,16.40
2022-11-26T02:09:25.977Z,14.30
2022-11-26T02:11:53.859Z,15.30
2022-11-26T02:14:24.598Z,17.08
2022-11-26T02:17:03.496Z,16.13
2022-11-26T02:20:27.801Z,15.75
2022-11-26T02:23:40.229Z,15.02
2022-11-26T02:27:02.252Z,15.25
2022-11-26T02:29:59.857Z,15.77
2022-11-26T02:32:31.281Z,15.52
2022-11-26T02:35:02.702Z,16.55
2022-11-26T02:37:36.280Z,14.80
2022-11-26T02:40:04.690Z,15.32
2022-11-26T02:42:35.479Z,16.27
2022-11-26T02:45:09.530Z,16.95
2022-11-26T02:47:41.747Z,17.17
2022-11-26T02:50:13.978Z,16.98
2022-11-26T02:52:43.438Z,16.88
2022-11-26T02:55:14.062Z,16.20
2022-11-26T02:57:46.194Z,18.27
2022-11-26T03:00:16.918Z,18.33
2022-11-26T03:02:48.823Z,18.38
2022-11-26T03:05:18.666Z,18.27
2022-11-26T03:07:48.505Z,18.27
2022-11-26T03:10:17.724Z,20.50
2022-11-26T03:12:45.569Z,18.33
2022-11-26T03:15:14.833Z,18.90
2022-11-26T03:17:42.706Z,19.52
2022-11-26T03:20:11.129Z,20.23
2022-11-26T03:22:39.221Z,19.50
2022-11-26T03:25:08.782Z,20.10
2022-11-26T03:27:36.724Z,20.55
2022-11-26T03:30:06.051Z,19.73
2022-11-26T03:32:35.379Z,19.10
2022-11-26T03:35:03.433Z,20.30
2022-11-26T03:37:31.484Z,19.83
2022-11-26T03:39:59.406Z,20.35
2022-11-26T03:42:27.313Z,20.83
2022-11-26T03:44:56.509Z,21.58
2022-11-26T03:47:24.485Z,20.65
2022-11-26T03:49:54.494Z,21.00
2022-11-26T03:52:22.378Z,21.67
2022-11-26T03:54:50.270Z,22.48
2022-11-26T03:57:18.358Z,22.10
2022-11-26T03:59:46.240Z,21.80
2022-11-26T04:02:14.077Z,21.10
2022-11-26T04:04:42.052Z,20.60
2022-11-26T04:07:11.332Z,21.42
2022-11-26T04:09:39.280Z,21.60
2022-11-26T04:12:07.613Z,20.67
2022-11-26T04:14:35.638Z,21.63
2022-11-26T04:17:03.618Z,23.25
2022-11-26T04:19:31.745Z,20.92
2022-11-26T04:21:59.648Z,21.00
2022-11-26T04:24:29.131Z,19.65
2022-11-26T04:26:57.027Z,21.75
2022-11-26T04:29:24.971Z,18.92
2022-11-26T04:31:52.871Z,19.08
2022-11-26T04:34:20.790Z,18.77
2022-11-26T04:36:48.622Z,20.80
2022-11-26T04:39:16.624Z,20.40
2022-11-26T04:41:45.858Z,18.17
2022-11-26T04:44:13.726Z,19.17
2022-11-26T04:46:41.597Z,20.30
2022-11-26T04:49:09.454Z,19.17
2022-11-26T04:51:37.355Z,20.00
2022-11-26T04:54:09.920Z,18.92
2022-11-26T04:56:40.738Z,20.73
2022-11-26T04:59:09.958Z,18.48
2022-11-26T05:01:37.951Z,18.23
2022-11-26T05:04:06.197Z,17.42
2022-11-26T05:06:34.364Z,19.30
2022-11-26T05:09:02.212Z,18.83
2022-11-26T05:11:30.109Z,17.90
2022-11-26T05:13:58.000Z,16.95
2022-11-26T05:16:27.288Z,16.15
2022-11-26T05:18:55.177Z,16.65
2022-11-26T05:21:23.133Z,17.20
2022-11-26T05:23:51.041Z,17.05
2022-11-26T05:26:18.880Z,16.23
2022-11-26T05:28:46.744Z,16.90
2022-11-26T05:31:14.699Z,15.88
2022-11-26T05:33:44.058Z,15.85
2022-11-26T05:36:11.916Z,15.75
2022-11-26T05:38:39.744Z,15.70
2022-11-26T05:41:07.842Z,14.98
2022-11-26T05:43:35.764Z,15.13
2022-11-26T05:46:06.156Z,15.55
2022-11-26T05:48:34.151Z,14.35
2022-11-26T05:51:03.819Z,14.15
2022-11-26T05:53:31.780Z,13.77
2022-11-26T05:55:59.882Z,13.90
2022-11-26T05:58:27.924Z,13.60
2022-11-26T06:00:55.827Z,13.07
2022-11-26T06:03:23.911Z,12.77
2022-11-26T06:05:51.974Z,12.93
2022-11-26T06:08:21.235Z,13.73
2022-11-26T06:10:49.148Z,13.25
2022-11-26T06:13:17.003Z,12.45
2022-11-26T06:15:44.945Z,11.90
2022-11-26T06:18:12.898Z,11.85
2022-11-26T06:20:40.869Z,12.13
2022-11-26T06:23:08.756Z,11.73
2022-11-26T06:25:40.980Z,12.68
2022-11-26T06:28:08.918Z,12.57
2022-11-26T06:30:36.804Z,13.18
2022-11-26T06:33:04.701Z,11.95
2022-11-26T06:35:32.686Z,11.98
2022-11-26T06:38:00.569Z,11.68
2022-11-26T06:40:28.546Z,13.32
2022-11-26T06:42:57.896Z,12.80
2022-11-26T06:45:25.886Z,12.98
2022-11-26T06:47:53.956Z,12.35
2022-11-26T06:50:23.772Z,13.48
2022-11-26T06:52:52.841Z,12.15
2022-11-26T06:55:20.906Z,11.85
2022-11-26T06:57:50.870Z,11.88
2022-11-26T07:00:21.999Z,12.35
2022-11-26T07:02:50.116Z,11.48
2022-11-26T07:05:18.513Z,12.35
2022-11-26T07:07:46.389Z,11.23
2022-11-26T07:10:14.360Z,11.10
2022-11-26T07:12:42.246Z,12.90
2022-11-26T07:15:11.360Z,11.85
2022-11-26T07:17:40.662Z,11.93
2022-11-26T07:20:09.538Z,11.40
2022-11-26T07:22:37.503Z,11.20
2022-11-26T07:25:10.856Z,10.63
2022-11-26T07:27:40.473Z,12.07
2022-11-26T07:30:09.597Z,11.35
2022-11-26T07:32:37.501Z,10.23
2022-11-26T07:35:07.612Z,10.52
2022-11-26T07:37:35.571Z,10.27
2022-11-26T07:40:03.806Z,10.18
2022-11-26T07:42:33.195Z,11.20
2022-11-26T07:45:01.882Z,10.60
2022-11-26T07:47:29.766Z,10.60
2022-11-26T07:49:57.600Z,10.57
2022-11-26T07:52:26.828Z,9.60
2022-11-26T07:54:54.670Z,10.35
2022-11-26T07:57:23.027Z,9.60
2022-11-26T07:59:50.834Z,10.65
2022-11-26T08:02:19.226Z,9.43
2022-11-26T08:04:47.186Z,8.75
2022-11-26T08:07:22.062Z,9.00
2022-11-26T08:09:55.238Z,8.60
2022-11-26T08:12:23.112Z,8.52
2022-11-26T08:14:50.926Z,8.63
2022-11-26T08:17:18.800Z,9.13
2022-11-26T08:19:46.712Z,8.98
2022-11-26T08:22:14.587Z,9.38
2022-11-26T08:24:42.463Z,8.23
2022-11-26T08:27:11.951Z,10.02
2022-11-26T08:29:39.869Z,8.98
2022-11-26T08:32:07.861Z,9.70
2022-11-26T08:34:36.123Z,9.15
2022-11-26T08:37:04.195Z,8.07
2022-11-26T08:39:32.045Z,8.60
2022-11-26T08:41:59.918Z,7.65
2022-11-26T08:44:29.132Z,8.15
2022-11-26T08:46:57.096Z,7.63
2022-11-26T08:49:25.040Z,7.20
2022-11-26T08:51:52.923Z,7.75
2022-11-26T08:54:20.768Z,7.32
2022-11-26T08:56:48.666Z,6.68
2022-11-26T08:59:17.480Z,7.20
2022-11-26T09:01:46.939Z,7.60
2022-11-26T09:04:14.772Z,6.75
2022-11-26T09:06:42.792Z,6.57
2022-11-26T09:09:15.801Z,6.82
2022-11-26T09:11:47.679Z,7.60
2022-11-26T09:14:17.896Z,7.05
2022-11-26T09:16:47.759Z,6.32
2022-11-26T09:19:16.506Z,7.97
2022-11-26T09:21:44.472Z,7.28
2022-11-26T09:24:12.617Z,7.65
2022-11-26T09:26:41.180Z,6.85
2022-11-26T09:29:09.245Z,7.68
2022-11-26T09:31:42.742Z,8.60
2022-11-26T09:34:24.528Z,5.80
2022-11-26T09:36:52.386Z,6.65
2022-11-26T09:39:20.213Z,6.20
2022-11-26T09:41:55.344Z,5.65
2022-11-26T09:44:33.164Z,5.72
2022-11-26T09:47:12.715Z,7.10
2022-11-26T09:49:52.770Z,6.20
2022-11-26T09:52:24.385Z,6.28
2022-11-26T09:55:00.603Z,6.00
2022-11-26T09:57:34.882Z,4.90
2022-11-26T10:00:23.828Z,5.43
2022-11-26T10:02:54.195Z,4.65
2022-11-26T10:05:26.625Z,5.57
2022-11-26T10:08:06.691Z,4.70
2022-11-26T10:10:41.690Z,4.95
2022-11-26T10:13:20.393Z,6.20
2022-11-26T10:15:59.314Z,4.95
2022-11-26T10:18:38.762Z,4.95
2022-11-26T10:21:51.738Z,4.55
2022-11-26T10:24:22.454Z,4.93
2022-11-26T10:26:50.853Z,5.97
2022-11-26T10:29:24.058Z,4.95
2022-11-26T10:31:58.220Z,5.28
2022-11-26T10:34:37.465Z,6.28
2022-11-26T10:37:08.965Z,5.35
2022-11-26T10:39:36.886Z,5.15
2022-11-26T10:42:07.908Z,5.70
2022-11-26T10:44:40.403Z,5.45
2022-11-26T10:47:25.528Z,6.13
2022-11-26T10:49:54.880Z,5.80
2022-11-26T10:52:27.884Z,5.72
2022-11-26T10:55:17.297Z,6.13
2022-11-26T10:57:50.275Z,5.47
2022-11-26T11:00:32.839Z,5.18
2022-11-26T11:03:01.582Z,5.18
2022-11-26T11:05:30.267Z,6.00
2022-11-26T11:07:59.559Z,4.95
2022-11-26T11:10:27.939Z,4.55
2022-11-26T11:13:12.918Z,4.53
2022-11-26T11:15:41.741Z,5.07
2022-11-26T11:18:19.402Z,4.78
2022-11-26T11:20:55.615Z,4.05
2022-11-26T11:23:45.846Z,4.22
2022-11-26T11:26:19.016Z,4.38
2022-11-26T11:28:49.674Z,4.18
2022-11-26T11:31:19.625Z,3.80
2022-11-26T11:33:48.522Z,4.50
2022-11-26T11:36:26.596Z,4.70
2022-11-26T11:38:58.219Z,4.40
2022-11-26T11:41:31.882Z,4.78
2022-11-26T11:44:03.459Z,5.20
2022-11-26T11:47:02.787Z,5.43
2022-11-26T11:49:48.243Z,5.35
2022-11-26T11:52:27.463Z,5.15
2022-11-26T11:55:05.207Z,5.53
2022-11-26T11:57:47.960Z,5.07
2022-11-26T12:00:19.681Z,5.37
2022-11-26T12:03:01.892Z,6.10
2022-11-26T12:05:42.396Z,5.60
2022-11-26T12:08:23.025Z,6.15
2022-11-26T12:11:02.600Z,6.47
2022-11-26T12:13:32.905Z,6.22
2022-11-26T12:16:04.924Z,6.53
2022-11-26T12:18:47.139Z,6.57
2022-11-26T12:21:17.120Z,6.18
2022-11-26T12:23:50.719Z,6.63
2022-11-26T12:26:24.963Z,6.13
2022-11-26T12:28:59.393Z,7.15
2022-11-26T12:31:33.962Z,6.88
2022-11-26T12:34:09.034Z,6.93
2022-11-26T12:36:45.532Z,7.15
2022-11-26T12:39:19.090Z,7.32
2022-11-26T12:41:57.504Z,7.30
2022-11-26T12:44:31.649Z,7.70
2022-11-26T12:47:09.858Z,7.65
2022-11-26T12:49:46.423Z,6.93
2022-11-26T12:52:29.621Z,6.80
2022-11-26T12:55:04.642Z,5.60
2022-11-26T12:57:39.320Z,5.60
2022-11-26T13:00:12.887Z,4.97
2022-11-26T13:02:43.589Z,5.07
2022-11-26T13:05:19.033Z,4.65
2022-11-26T13:08:04.200Z,4.72
2022-11-26T13:10:38.974Z,4.97
2022-11-26T13:13:19.260Z,4.90
2022-11-26T13:16:01.877Z,4.95
2022-11-26T13:18:35.163Z,3.85
2022-11-26T13:23:50.704Z,5.28
2022-11-26T13:26:34.692Z,4.80
2022-11-26T13:29:22.640Z,5.00
2022-11-26T13:32:13.136Z,5.13
2022-11-26T13:35:01.778Z,4.78
2022-11-26T13:37:48.041Z,5.18
2022-11-26T13:40:58.508Z,5.53
2022-11-26T13:43:44.844Z,5.70
2022-11-26T13:46:22.046Z,6.03
2022-11-26T13:48:57.853Z,5.50
2022-11-26T13:51:31.501Z,5.80
2022-11-26T13:54:07.942Z,5.22
2022-11-26T13:56:38.186Z,5.85
2022-11-26T13:59:14.614Z,5.72
2022-11-26T14:01:43.915Z,4.97
2022-11-26T14:04:13.808Z,4.93
2022-11-26T14:07:19.776Z,5.55
2022-11-26T14:09:51.630Z,5.40
2022-11-26T14:12:20.345Z,5.55
2022-11-26T14:14:49.327Z,5.05
2022-11-26T14:17:28.824Z,5.28
2022-11-26T14:20:07.570Z,4.28
2022-11-26T14:22:37.125Z,4.65
2022-11-26T14:25:10.667Z,5.10
2022-11-26T14:27:41.995Z,5.57
2022-11-26T14:30:32.583Z,5.20
2022-11-26T14:33:27.206Z,5.45
2022-11-26T14:35:56.804Z,5.65
2022-11-26T14:38:27.477Z,5.78
2022-11-26T14:41:00.468Z,6.00
2022-11-26T14:43:29.159Z,6.85
2022-11-26T14:46:07.315Z,7.18
2022-11-26T14:48:43.918Z,6.78
2022-11-26T14:51:12.048Z,6.68
2022-11-26T14:53:47.551Z,6.70
2022-11-26T14:56:15.895Z,6.95
2022-11-26T14:58:47.058Z,5.82
2022-11-26T15:01:21.822Z,6.70
2022-11-26T15:03:59.897Z,6.70
2022-11-26T15:06:34.713Z,7.20
2022-11-26T15:09:07.443Z,7.47
2022-11-26T15:11:38.591Z,8.20
2022-11-26T15:14:06.642Z,7.63
2022-11-26T15:16:37.834Z,7.57
2022-11-26T15:19:08.207Z,7.78
2022-11-26T15:21:36.560Z,8.30
2022-11-26T15:24:09.613Z,8.05
2022-11-26T15:26:39.632Z,8.38
2022-11-26T15:29:30.365Z,7.85
2022-11-26T15:31:58.632Z,7.40
2022-11-26T15:34:29.593Z,8.48
2022-11-26T15:36:57.486Z,8.50
2022-11-26T15:39:28.064Z,8.48
2022-11-26T15:42:00.568Z,8.10
2022-11-26T15:44:31.027Z,8.37
2022-11-26T15:47:01.676Z,8.20
2022-11-26T15:49:37.050Z,6.90
2022-11-26T15:52:08.714Z,7.13
2022-11-26T15:57:30.851Z,7.03
2022-11-26T16:00:01.767Z,7.38
2022-11-26T16:05:02.418Z,6.88
2022-11-26T16:07:31.686Z,6.47
2022-11-26T16:10:24.550Z,6.45
2022-11-26T16:13:18.449Z,6.10
2022-11-26T16:18:18.964Z,5.53
2022-11-26T16:20:48.535Z,6.82
2022-11-26T16:23:29.638Z,5.00
2022-11-26T16:26:12.354Z,5.07
2022-11-26T16:28:40.509Z,3.63
2022-11-26T16:31:08.498Z,6.05
2022-11-26T16:33:36.408Z,6.00
2022-11-26T16:36:18.941Z,4.80
2022-11-26T16:38:47.515Z,4.82
2022-11-26T16:41:17.035Z,5.60
2022-11-26T16:43:44.890Z,5.82
2022-11-26T16:46:16.428Z,5.53
2022-11-26T16:48:46.068Z,5.38
2022-11-26T16:51:15.734Z,5.40
2022-11-26T16:53:43.999Z,6.03
2022-11-26T16:56:23.681Z,5.30
2022-11-26T16:58:52.456Z,5.88
2022-11-26T17:01:20.533Z,5.55
2022-11-26T17:03:48.442Z,4.95
2022-11-26T17:06:25.588Z,4.95
2022-11-26T17:08:55.912Z,5.63
2022-11-26T17:11:24.255Z,5.30
2022-11-26T17:13:52.241Z,6.90
2022-11-26T17:16:21.753Z,6.22
2022-11-26T17:18:50.008Z,6.38
2022-11-26T17:21:19.235Z,6.22
2022-11-26T17:23:47.078Z,7.00
2022-11-26T17:26:19.846Z,7.13
2022-11-26T17:28:48.245Z,5.40
2022-11-26T17:31:16.520Z,8.40
2022-11-26T17:33:44.525Z,7.07
2022-11-26T17:36:21.949Z,8.02
2022-11-26T17:38:50.301Z,8.98
2022-11-26T17:41:18.431Z,8.15
2022-11-26T17:43:46.315Z,7.85
2022-11-26T17:46:17.172Z,7.72
2022-11-26T17:48:45.700Z,7.88
2022-11-26T17:51:14.903Z,8.65
2022-11-26T17:53:45.016Z,8.70
2022-11-26T17:56:20.974Z,9.05
2022-11-26T17:58:49.238Z,7.40
2022-11-26T18:01:18.011Z,8.82
2022-11-26T18:03:46.634Z,7.63
2022-11-26T18:06:18.800Z,9.02
2022-11-26T18:08:48.205Z,8.18
2022-11-26T18:11:17.644Z,8.18
2022-11-26T18:13:46.156Z,8.27
2022-11-26T18:16:14.121Z,8.25
2022-11-26T18:18:42.061Z,8.68
2022-11-26T18:21:09.985Z,9.10
2022-11-26T18:23:37.847Z,9.27
2022-11-26T18:26:15.074Z,8.43
2022-11-26T18:28:42.950Z,7.88
2022-11-26T18:31:10.908Z,8.63
2022-11-26T18:33:38.883Z,7.55
2022-11-26T18:36:07.602Z,8.50
2022-11-26T18:38:36.785Z,8.70
2022-11-26T18:41:06.529Z,8.10
2022-11-26T18:43:38.754Z,7.90
2022-11-26T18:46:11.470Z,7.88
2022-11-26T18:48:40.955Z,6.47
2022-11-26T18:51:09.462Z,8.38
2022-11-26T18:53:38.219Z,8.25
2022-11-26T18:56:08.758Z,8.23
2022-11-26T18:58:38.263Z,8.45
2022-11-26T19:01:13.716Z,8.93
2022-11-26T19:03:43.977Z,8.05
2022-11-26T19:06:15.712Z,8.00
2022-11-26T19:08:43.663Z,8.80
2022-11-26T19:11:12.772Z,9.10
2022-11-26T19:13:42.727Z,9.35
2022-11-26T19:16:16.622Z,9.38
2022-11-26T19:18:45.863Z,7.97
2022-11-26T19:21:19.025Z,8.90
2022-11-26T19:23:47.242Z,8.82
2022-11-26T19:26:15.385Z,8.45
2022-11-26T19:28:44.725Z,8.85
2022-11-26T19:31:14.864Z,9.40
2022-11-26T19:33:43.124Z,10.98
2022-11-26T19:36:13.676Z,10.13
2022-11-26T19:38:41.552Z,10.63
2022-11-26T19:41:09.615Z,12.32
2022-11-26T19:43:39.865Z,10.88
2022-11-26T19:46:11.693Z,11.18
2022-11-26T19:48:41.374Z,11.15
2022-11-26T19:51:10.736Z,10.15
2022-11-26T19:53:39.338Z,10.00
2022-11-26T19:56:12.588Z,11.65
2022-11-26T19:58:40.462Z,10.75
2022-11-26T20:01:13.018Z,11.65
2022-11-26T20:03:40.948Z,12.13
2022-11-26T20:06:14.159Z,11.07
2022-11-26T20:08:42.111Z,11.60
2022-11-26T20:11:10.946Z,12.23
2022-11-26T20:13:42.404Z,13.25
2022-11-26T20:16:13.636Z,11.88
2022-11-26T20:18:42.161Z,12.65
2022-11-26T20:21:12.103Z,13.73
2022-11-26T20:23:40.380Z,13.25
2022-11-26T20:26:17.194Z,10.95
2022-11-26T20:28:45.861Z,14.05
2022-11-26T20:31:21.863Z,14.60
2022-11-26T20:33:51.382Z,13.63
2022-11-26T20:36:22.834Z,13.27
2022-11-26T20:38:52.929Z,14.23
2022-11-26T20:41:21.304Z,13.90
2022-11-26T20:43:53.562Z,12.23
2022-11-26T20:46:26.703Z,12.50
2022-11-26T20:48:54.768Z,11.50
2022-11-26T20:51:22.707Z,12.77
2022-11-26T20:53:51.975Z,12.48
2022-11-26T20:56:21.239Z,12.55
2022-11-26T20:58:50.536Z,12.40
2022-11-26T21:01:20.866Z,11.27
2022-11-26T21:03:50.218Z,13.23
2022-11-26T21:06:25.929Z,13.07
2022-11-26T21:08:57.566Z,13.00
2022-11-26T21:11:25.547Z,10.48
2022-11-26T21:13:53.678Z,11.98
2022-11-26T21:16:22.501Z,12.32
2022-11-26T21:18:54.239Z,12.30
2022-11-26T21:21:22.740Z,13.13
2022-11-26T21:23:50.966Z,12.85
2022-11-26T21:26:20.488Z,13.23
2022-11-26T21:28:51.533Z,11.50
2022-11-26T21:31:20.795Z,12.13
2022-11-26T21:33:49.515Z,12.48
2022-11-26T21:36:18.736Z,12.10
2022-11-26T21:38:49.378Z,11.65
2022-11-26T21:41:19.883Z,11.73
2022-11-26T21:43:49.035Z,12.75
2022-11-26T21:46:19.468Z,11.50
2022-11-26T21:48:47.907Z,11.43
2022-11-26T21:51:19.598Z,11.73
2022-11-26T21:53:49.588Z,10.68
2022-11-26T21:56:20.178Z,11.52
2022-11-26T21:58:48.630Z,10.70
2022-11-26T22:01:18.097Z,11.73
2022-11-26T22:03:48.205Z,11.75
2022-11-26T22:06:18.704Z,12.27
2022-11-26T22:08:47.548Z,11.25
2022-11-26T22:11:17.437Z,11.95
2022-11-26T22:13:46.168Z,11.70
2022-11-26T22:16:16.406Z,11.70
2022-11-26T22:18:45.777Z,13.00
2022-11-26T22:21:16.122Z,12.35
2022-11-26T22:23:45.556Z,11.90
2022-11-26T22:26:13.694Z,11.68
2022-11-26T22:28:42.067Z,11.82
2022-11-26T22:31:12.587Z,13.00
2022-11-26T22:33:40.623Z,12.85
2022-11-26T22:36:09.257Z,12.40
2022-11-26T22:38:37.527Z,12.70
2022-11-26T22:41:09.897Z,11.75
2022-11-26T22:43:38.240Z,12.30
2022-11-26T22:46:07.269Z,12.60
2022-11-26T22:48:35.798Z,12.88
2022-11-26T22:51:04.536Z,11.20
2022-11-26T22:53:33.397Z,11.15
2022-11-26T22:56:03.044Z,12.02
2022-11-26T22:58:34.228Z,12.52
2022-11-26T23:01:04.543Z,11.57
2022-11-26T23:03:36.158Z,10.95
2022-11-26T23:06:06.011Z,11.38
2022-11-26T23:08:34.429Z,12.55
2022-11-26T23:11:17.417Z,12.23
2022-11-26T23:13:48.245Z,12.30
2022-11-26T23:16:16.912Z,12.13
2022-11-26T23:18:45.820Z,12.07
2022-11-26T23:21:16.017Z,11.98
2022-11-26T23:23:44.146Z,12.25
2022-11-26T23:26:14.398Z,13.05
2022-11-26T23:28:42.846Z,12.43
2022-11-26T23:31:15.713Z,11.48
2022-11-26T23:33:43.989Z,12.18
2022-11-26T23:36:12.458Z,12.38
2022-11-26T23:38:40.861Z,12.00
2022-11-26T23:41:08.822Z,12.30
2022-11-26T23:43:38.326Z,12.13
2022-11-26T23:46:08.376Z,13.45
2022-11-26T23:48:37.957Z,12.57
2022-11-26T23:51:08.099Z,11.10
2022-11-26T23:53:36.998Z,12.18
2022-11-26T23:56:06.563Z,12.25
2022-11-26T23:58:34.816Z,11.60
